Prairie Du Sac, Wisconsin
Current Conditions -  °F | °C
As of 12:35 AM on Saturday 25 Oct 2014 (Local Time) from KC29 Reporting Station
Clear Clear  
Wind Chill: 56°   Ceiling: Unl
Heat Index: 56°   Visibility: 5mi
Dew Point: 56°   Wind: 5mph
Humidity: 97%   Direction: 250°WSW
Pressure: 29.89"   Gusts: NA
Location:  43.29°N, 89.72°W
Report Text: KC29 250535Z AUTO 25004KT 5SM CLR 14/13 A2989 RMK AO1 T01350131
Loading
Personal Weather Stations






























Interactive Weather Map
Tropical Storm Tracking
New forecast layout! Learn more

10-Day Weather Forecast

Advertisements
Track Severe Weather on mobile